createdAt,value
2023-04-27T00:00:18.443Z,10.56
2023-04-27T00:01:49.771Z,13.57
2023-04-27T00:03:21.515Z,13.69
2023-04-27T00:04:53.348Z,15.80
2023-04-27T00:06:24.901Z,12.80
2023-04-27T00:07:56.180Z,12.30
2023-04-27T00:09:27.420Z,14.42
2023-04-27T00:10:58.668Z,12.23
2023-04-27T00:12:30.042Z,11.94
2023-04-27T00:14:01.395Z,13.78
2023-04-27T00:15:33.649Z,14.08
2023-04-27T00:17:04.958Z,13.56
2023-04-27T00:18:36.274Z,13.05
2023-04-27T00:20:07.560Z,12.50
2023-04-27T00:21:38.811Z,11.86
2023-04-27T00:23:15.414Z,13.20
2023-04-27T00:24:51.717Z,13.53
2023-04-27T00:26:29.273Z,13.12
2023-04-27T00:28:00.562Z,16.49
2023-04-27T00:29:31.886Z,14.96
2023-04-27T00:31:03.128Z,13.68
2023-04-27T00:32:34.614Z,15.62
2023-04-27T00:34:06.219Z,12.05
2023-04-27T00:35:37.413Z,13.43
2023-04-27T00:37:08.699Z,13.20
2023-04-27T00:38:39.927Z,12.74
2023-04-27T00:40:11.661Z,11.86
2023-04-27T00:41:43.127Z,13.64
2023-04-27T00:43:14.514Z,13.69
2023-04-27T00:44:45.861Z,12.10
2023-04-27T00:46:17.148Z,15.06
2023-04-27T00:47:48.434Z,12.85
2023-04-27T00:49:19.814Z,12.89
2023-04-27T00:50:51.613Z,12.32
2023-04-27T00:52:22.989Z,12.93
2023-04-27T00:53:54.535Z,12.83
2023-04-27T00:55:25.745Z,14.55
2023-04-27T00:57:18.188Z,13.43
2023-04-27T00:58:51.636Z,12.23
2023-04-27T01:00:23.521Z,14.77
2023-04-27T01:01:54.900Z,14.50
2023-04-27T01:03:26.386Z,11.49
2023-04-27T01:04:57.718Z,16.69
2023-04-27T01:06:29.005Z,14.54
2023-04-27T01:08:00.357Z,15.99
2023-04-27T01:09:31.665Z,15.19
2023-04-27T01:11:13.146Z,13.83
2023-04-27T01:12:49.416Z,12.54
2023-04-27T01:14:48.067Z,12.71
2023-04-27T01:16:38.420Z,12.44
2023-04-27T01:18:10.210Z,12.93
2023-04-27T01:19:49.332Z,13.40
2023-04-27T01:21:32.561Z,13.28
2023-04-27T01:23:23.251Z,12.25
2023-04-27T01:24:55.168Z,16.40
2023-04-27T01:26:46.564Z,17.01
2023-04-27T01:28:17.829Z,12.72
2023-04-27T01:29:49.292Z,14.62
2023-04-27T01:31:20.545Z,13.09
2023-04-27T01:32:51.832Z,13.11
2023-04-27T01:34:23.099Z,17.06
2023-04-27T01:35:54.371Z,16.38
2023-04-27T01:37:25.729Z,14.82
2023-04-27T01:38:57.264Z,14.52
2023-04-27T01:40:28.755Z,15.76
2023-04-27T01:42:00.410Z,15.60
2023-04-27T01:43:47.208Z,14.15
2023-04-27T01:45:19.261Z,14.50
2023-04-27T01:46:51.479Z,12.75
2023-04-27T01:48:23.926Z,15.20
2023-04-27T01:49:56.010Z,13.80
2023-04-27T01:51:27.944Z,14.06
2023-04-27T01:52:59.267Z,15.27
2023-04-27T01:54:30.733Z,15.93
2023-04-27T01:56:02.552Z,14.58
2023-04-27T01:57:34.098Z,17.27
2023-04-27T01:59:05.246Z,15.36
2023-04-27T02:00:46.518Z,16.62
2023-04-27T02:02:17.852Z,14.92
2023-04-27T02:03:56.889Z,14.40
2023-04-27T02:05:28.310Z,14.47
2023-04-27T02:06:59.584Z,15.27
2023-04-27T02:08:40.938Z,12.63
2023-04-27T02:10:12.191Z,14.81
2023-04-27T02:11:43.531Z,15.36
2023-04-27T02:13:14.726Z,16.78
2023-04-27T02:14:46.057Z,17.96
2023-04-27T02:16:17.654Z,17.79
2023-04-27T02:17:49.092Z,17.37
2023-04-27T02:19:20.529Z,16.34
2023-04-27T02:20:52.085Z,15.51
2023-04-27T02:22:23.333Z,16.36
2023-04-27T02:23:54.620Z,15.97
2023-04-27T02:25:25.852Z,17.07
2023-04-27T02:26:57.038Z,16.46
2023-04-27T02:28:28.421Z,15.67
2023-04-27T02:30:00.201Z,16.19
2023-04-27T02:31:31.898Z,15.65
2023-04-27T02:33:03.258Z,16.41
2023-04-27T02:34:34.510Z,15.62
2023-04-27T02:36:05.822Z,12.33
2023-04-27T02:37:37.156Z,14.41
2023-04-27T02:39:08.614Z,17.36
2023-04-27T02:40:39.940Z,16.72
2023-04-27T02:42:11.131Z,14.63
2023-04-27T02:43:42.383Z,18.48
2023-04-27T02:45:13.745Z,14.93
2023-04-27T02:46:45.224Z,15.92
2023-04-27T02:48:16.609Z,15.39
2023-04-27T02:49:48.064Z,18.73
2023-04-27T02:51:19.241Z,17.69
2023-04-27T02:52:50.626Z,16.54
2023-04-27T02:54:22.408Z,15.93
2023-04-27T02:55:53.699Z,16.37
2023-04-27T02:57:25.024Z,15.08
2023-04-27T02:58:56.379Z,15.39
2023-04-27T03:00:27.939Z,15.38
2023-04-27T03:01:59.501Z,16.62
2023-04-27T03:03:31.204Z,17.49
2023-04-27T03:05:02.730Z,18.98
2023-04-27T03:06:34.024Z,16.78
2023-04-27T03:08:05.281Z,14.90
2023-04-27T03:09:36.673Z,15.56
2023-04-27T03:11:08.142Z,14.12
2023-04-27T03:12:39.500Z,14.31
2023-04-27T03:14:11.185Z,15.55
2023-04-27T03:15:42.556Z,15.35
2023-04-27T03:17:13.927Z,15.15
2023-04-27T03:18:45.196Z,16.02
2023-04-27T03:20:16.480Z,13.65
2023-04-27T03:21:47.873Z,14.78
2023-04-27T03:23:19.204Z,15.82
2023-04-27T03:24:50.530Z,16.49
2023-04-27T03:26:21.857Z,15.62
2023-04-27T03:27:53.066Z,16.60
2023-04-27T03:29:24.424Z,18.43
2023-04-27T03:30:55.908Z,16.56
2023-04-27T03:32:27.160Z,15.89
2023-04-27T03:33:58.543Z,16.35
2023-04-27T03:35:29.862Z,14.90
2023-04-27T03:37:01.214Z,15.37
2023-04-27T03:38:32.501Z,16.80
2023-04-27T03:40:03.842Z,18.35
2023-04-27T03:41:35.002Z,19.10
2023-04-27T03:43:06.272Z,16.46
2023-04-27T03:44:37.556Z,16.85
2023-04-27T03:46:08.848Z,15.00
2023-04-27T03:47:40.207Z,18.24
2023-04-27T03:49:11.636Z,16.48
2023-04-27T03:50:42.932Z,16.18
2023-04-27T03:52:14.068Z,18.45
2023-04-27T03:53:45.294Z,19.09
2023-04-27T03:55:16.557Z,15.54
2023-04-27T03:56:47.944Z,17.27
2023-04-27T03:58:19.179Z,16.22
2023-04-27T03:59:50.374Z,16.85
2023-04-27T04:01:21.601Z,16.76
2023-04-27T04:02:53.311Z,15.92
2023-04-27T04:04:25.115Z,18.15
2023-04-27T04:05:56.848Z,18.46
2023-04-27T04:07:28.396Z,16.82
2023-04-27T04:08:59.645Z,17.49
2023-04-27T04:10:31.066Z,16.85
2023-04-27T04:12:02.464Z,18.23
2023-04-27T04:13:33.651Z,18.63
2023-04-27T04:15:05.023Z,17.81
2023-04-27T04:16:36.437Z,16.98
2023-04-27T04:18:07.791Z,16.22
2023-04-27T04:19:39.169Z,17.21
2023-04-27T04:21:10.426Z,17.64
2023-04-27T04:22:41.630Z,16.76
2023-04-27T04:24:12.845Z,19.06
2023-04-27T04:25:44.045Z,17.53
2023-04-27T04:27:15.520Z,20.13
2023-04-27T04:29:12.202Z,20.46
2023-04-27T04:31:51.676Z,19.80
2023-04-27T04:33:23.183Z,20.73
2023-04-27T04:35:04.442Z,18.59
2023-04-27T04:36:36.256Z,20.27
2023-04-27T04:38:07.617Z,17.89
2023-04-27T04:39:38.988Z,20.21
2023-04-27T04:41:10.417Z,18.15
2023-04-27T04:42:42.167Z,19.31
2023-04-27T04:44:13.384Z,18.67
2023-04-27T04:45:44.531Z,19.80
2023-04-27T04:47:15.741Z,19.50
2023-04-27T04:48:47.209Z,19.38
2023-04-27T04:50:18.672Z,19.04
2023-04-27T04:51:49.862Z,16.96
2023-04-27T04:53:21.160Z,18.79
2023-04-27T04:54:52.710Z,18.94
2023-04-27T04:56:23.996Z,18.70
2023-04-27T04:58:00.339Z,19.00
2023-04-27T04:59:32.796Z,21.59
2023-04-27T05:01:03.994Z,19.94
2023-04-27T05:02:35.442Z,20.22
2023-04-27T05:04:07.234Z,21.62
2023-04-27T05:05:39.646Z,18.56
2023-04-27T05:07:12.565Z,22.90
2023-04-27T05:08:45.417Z,19.41
2023-04-27T05:10:16.667Z,19.95
2023-04-27T05:11:47.924Z,18.54
2023-04-27T05:13:19.792Z,20.21
2023-04-27T05:14:51.141Z,18.77
2023-04-27T05:16:22.518Z,21.01
2023-04-27T05:17:53.825Z,20.51
2023-04-27T05:19:30.072Z,19.62
2023-04-27T05:21:01.451Z,20.18
2023-04-27T05:22:32.929Z,19.73
2023-04-27T05:24:04.174Z,19.37
2023-04-27T05:25:35.385Z,20.01
2023-04-27T05:27:06.631Z,19.61
2023-04-27T05:28:38.044Z,20.85
2023-04-27T05:30:19.237Z,17.67
2023-04-27T05:31:50.846Z,21.94
2023-04-27T05:33:22.321Z,19.39
2023-04-27T05:34:53.567Z,18.61
2023-04-27T05:36:24.756Z,20.86
2023-04-27T05:37:56.072Z,20.03
2023-04-27T05:39:27.590Z,19.50
2023-04-27T05:40:59.136Z,18.50
2023-04-27T05:42:30.542Z,15.18
2023-04-27T05:44:02.292Z,19.12
2023-04-27T05:45:33.782Z,19.37
2023-04-27T05:47:05.073Z,18.81
2023-04-27T05:48:48.536Z,19.20
2023-04-27T05:50:20.202Z,17.73
2023-04-27T05:51:51.437Z,16.46
2023-04-27T05:53:22.856Z,18.97
2023-04-27T05:54:59.399Z,18.74
2023-04-27T05:56:31.014Z,16.91
2023-04-27T05:58:10.604Z,18.63
2023-04-27T05:59:43.281Z,17.05
2023-04-27T06:01:14.891Z,17.24
2023-04-27T06:02:46.476Z,18.20
2023-04-27T06:04:18.518Z,18.65
2023-04-27T06:05:50.318Z,16.29
2023-04-27T06:07:21.684Z,17.66
2023-04-27T06:08:58.080Z,16.42
2023-04-27T06:10:30.167Z,15.64
2023-04-27T06:12:01.449Z,18.00
2023-04-27T06:13:42.750Z,17.22
2023-04-27T06:15:14.074Z,19.08
2023-04-27T06:17:05.540Z,18.51
2023-04-27T06:18:36.947Z,16.80
2023-04-27T06:20:08.118Z,14.48
2023-04-27T06:21:39.304Z,14.84
2023-04-27T06:23:10.522Z,17.18
2023-04-27T06:24:41.738Z,17.18
2023-04-27T06:26:13.184Z,15.61
2023-04-27T06:27:44.592Z,15.91
2023-04-27T06:29:16.184Z,13.31
2023-04-27T06:30:47.651Z,16.18
2023-04-27T06:32:19.017Z,12.33
2023-04-27T06:33:50.282Z,14.87
2023-04-27T06:35:26.611Z,15.33
2023-04-27T06:36:57.985Z,13.59
2023-04-27T06:38:29.486Z,11.78
2023-04-27T06:40:00.999Z,11.76
2023-04-27T06:41:32.270Z,11.29
2023-04-27T06:43:03.620Z,11.41
2023-04-27T06:44:35.038Z,13.48
2023-04-27T06:46:06.297Z,12.47
2023-04-27T06:47:37.516Z,12.54
2023-04-27T06:49:08.914Z,17.95
2023-04-27T06:50:40.226Z,13.02
2023-04-27T06:52:11.737Z,11.44
2023-04-27T06:53:43.332Z,9.42
2023-04-27T06:55:14.631Z,10.11
2023-04-27T06:56:45.898Z,10.06
2023-04-27T06:58:17.374Z,9.36
2023-04-27T06:59:48.700Z,9.97
2023-04-27T07:01:20.216Z,13.00
2023-04-27T07:02:51.895Z,11.92
2023-04-27T07:04:33.422Z,10.90
2023-04-27T07:06:04.683Z,13.66
2023-04-27T07:07:35.971Z,11.53
2023-04-27T07:09:13.490Z,12.13
2023-04-27T07:10:57.780Z,11.41
2023-04-27T07:12:29.096Z,11.57
2023-04-27T07:14:00.309Z,11.34
2023-04-27T07:15:31.626Z,8.80
2023-04-27T07:17:02.974Z,11.27
2023-04-27T07:18:35.340Z,11.93
2023-04-27T07:20:06.758Z,10.70
2023-04-27T07:21:38.167Z,9.30
2023-04-27T07:23:09.820Z,11.91
2023-04-27T07:24:41.649Z,10.86
2023-04-27T07:26:12.887Z,10.44
2023-04-27T07:27:44.123Z,8.16
2023-04-27T07:29:26.657Z,9.42
2023-04-27T07:30:58.610Z,11.66
2023-04-27T07:32:29.854Z,9.51
2023-04-27T07:34:01.195Z,8.88
2023-04-27T07:35:32.478Z,9.88
2023-04-27T07:37:08.889Z,8.02
2023-04-27T07:38:40.130Z,9.09
2023-04-27T07:40:11.644Z,9.13
2023-04-27T07:41:43.024Z,7.95
2023-04-27T07:43:14.403Z,7.34
2023-04-27T07:44:45.905Z,10.22
2023-04-27T07:46:17.303Z,10.40
2023-04-27T07:47:48.986Z,9.40
2023-04-27T07:49:20.536Z,8.66
2023-04-27T07:50:51.814Z,10.39
2023-04-27T07:52:23.263Z,8.45
2023-04-27T07:53:54.530Z,9.80
2023-04-27T07:55:31.521Z,9.88
2023-04-27T07:57:02.740Z,8.58
2023-04-27T07:58:39.000Z,8.13
2023-04-27T08:00:21.246Z,9.88
2023-04-27T08:01:54.406Z,11.75
2023-04-27T08:03:38.988Z,9.43
2023-04-27T08:05:10.978Z,9.29
2023-04-27T08:06:54.965Z,8.35
2023-04-27T08:08:26.985Z,8.21
2023-04-27T08:10:11.293Z,7.82
2023-04-27T08:11:42.524Z,10.70
2023-04-27T08:13:30.875Z,8.34
2023-04-27T08:15:02.184Z,10.02
2023-04-27T08:16:33.694Z,9.99
2023-04-27T08:18:05.049Z,9.42
2023-04-27T08:20:11.322Z,8.84
2023-04-27T08:21:59.589Z,9.55
2023-04-27T08:23:31.030Z,9.73
2023-04-27T08:25:07.240Z,8.87
2023-04-27T08:26:48.676Z,8.87
2023-04-27T08:28:20.050Z,8.57
2023-04-27T08:29:51.571Z,8.93
2023-04-27T08:31:22.894Z,11.70
2023-04-27T08:32:54.449Z,9.30
2023-04-27T08:34:26.230Z,8.75
2023-04-27T08:35:57.739Z,9.19
2023-04-27T08:37:29.023Z,8.11
2023-04-27T08:39:00.365Z,9.11
2023-04-27T08:40:31.904Z,8.50
2023-04-27T08:42:03.816Z,8.64
2023-04-27T08:43:35.129Z,11.93
2023-04-27T08:45:06.380Z,8.64
2023-04-27T08:46:37.702Z,7.30
2023-04-27T08:48:09.090Z,9.18
2023-04-27T08:49:40.458Z,9.52
2023-04-27T08:51:11.729Z,8.39
2023-04-27T08:52:42.980Z,8.48
2023-04-27T08:54:14.263Z,9.50
2023-04-27T08:55:45.451Z,9.52
2023-04-27T08:57:17.794Z,8.55
2023-04-27T08:58:49.079Z,7.88
2023-04-27T09:00:20.344Z,9.12
2023-04-27T09:01:51.675Z,9.18
2023-04-27T09:03:23.527Z,7.13
2023-04-27T09:04:55.431Z,8.66
2023-04-27T09:06:27.289Z,7.86
2023-04-27T09:07:59.584Z,6.71
2023-04-27T09:09:36.275Z,7.50
2023-04-27T09:11:07.781Z,8.86
2023-04-27T09:12:39.088Z,7.94
2023-04-27T09:14:10.722Z,8.62
2023-04-27T09:15:48.520Z,8.34
2023-04-27T09:17:20.188Z,7.90
2023-04-27T09:18:51.591Z,7.71
2023-04-27T09:20:22.823Z,8.45
2023-04-27T09:21:58.136Z,9.46
2023-04-27T09:23:29.379Z,8.96
2023-04-27T09:25:00.902Z,8.61
2023-04-27T09:26:32.518Z,9.02
2023-04-27T09:28:03.936Z,6.55
2023-04-27T09:29:35.316Z,7.50
2023-04-27T09:31:06.744Z,9.57
2023-04-27T09:32:38.144Z,7.98
2023-04-27T09:34:09.505Z,6.77
2023-04-27T09:35:41.153Z,7.12
2023-04-27T09:37:12.495Z,8.42
2023-04-27T09:38:43.817Z,6.80
2023-04-27T09:40:15.065Z,7.38
2023-04-27T09:41:46.315Z,9.49
2023-04-27T09:43:17.777Z,8.03
2023-04-27T09:44:49.374Z,7.04
2023-04-27T09:46:21.230Z,6.60
2023-04-27T09:47:52.710Z,6.72
2023-04-27T09:49:24.271Z,6.58
2023-04-27T09:50:55.610Z,7.45
2023-04-27T09:52:27.147Z,6.70
2023-04-27T09:53:58.584Z,7.88
2023-04-27T09:55:30.178Z,7.65
2023-04-27T09:57:01.838Z,9.07
2023-04-27T09:58:33.471Z,7.72
2023-04-27T10:00:04.804Z,6.70
2023-04-27T10:01:37.526Z,7.10
2023-04-27T10:03:09.050Z,6.83
2023-04-27T10:04:40.737Z,9.19
2023-04-27T10:06:12.251Z,6.80
2023-04-27T10:07:43.638Z,7.58
2023-04-27T10:09:15.448Z,6.40
2023-04-27T10:10:47.100Z,7.73
2023-04-27T10:12:18.405Z,7.75
2023-04-27T10:13:50.078Z,8.44
2023-04-27T10:15:22.221Z,7.15
2023-04-27T10:16:53.561Z,8.34
2023-04-27T10:18:24.990Z,8.07
2023-04-27T10:19:57.940Z,7.18
2023-04-27T10:21:30.000Z,7.44
2023-04-27T10:23:01.610Z,7.32
2023-04-27T10:25:00.088Z,9.27
2023-04-27T10:26:32.954Z,7.57
2023-04-27T10:28:05.088Z,6.48
2023-04-27T10:29:36.510Z,5.92
2023-04-27T10:31:08.334Z,6.43
2023-04-27T10:32:40.202Z,6.98
2023-04-27T10:34:12.261Z,8.89
2023-04-27T10:35:43.787Z,6.94
2023-04-27T10:37:15.472Z,6.38
2023-04-27T10:38:49.801Z,5.64
2023-04-27T10:40:41.366Z,6.88
2023-04-27T10:42:42.040Z,8.72
2023-04-27T10:44:13.834Z,6.37
2023-04-27T10:45:45.498Z,6.21
2023-04-27T10:47:17.200Z,6.75
2023-04-27T10:48:48.667Z,7.00
2023-04-27T10:50:20.284Z,6.74
2023-04-27T10:51:51.983Z,9.22
2023-04-27T10:53:23.355Z,9.67
2023-04-27T10:54:55.146Z,7.41
2023-04-27T10:56:27.458Z,6.94
2023-04-27T10:57:59.053Z,7.45
2023-04-27T10:59:30.321Z,6.39
2023-04-27T11:01:01.986Z,8.17
2023-04-27T11:02:33.529Z,7.24
2023-04-27T11:04:04.890Z,7.85
2023-04-27T11:05:36.296Z,7.17
2023-04-27T11:09:09.147Z,8.16
2023-04-27T11:10:40.655Z,6.42
2023-04-27T11:12:11.995Z,8.02
2023-04-27T11:13:43.466Z,7.89
2023-04-27T11:15:15.647Z,7.38
2023-04-27T11:16:47.155Z,7.34
2023-04-27T11:18:18.682Z,9.12
2023-04-27T11:19:50.149Z,8.26
2023-04-27T11:21:21.593Z,7.81
2023-04-27T11:22:52.935Z,7.71
2023-04-27T11:24:24.284Z,8.32
2023-04-27T11:25:55.620Z,7.49
2023-04-27T11:27:26.997Z,7.11
2023-04-27T11:28:58.356Z,6.72
2023-04-27T11:30:29.773Z,6.74
2023-04-27T11:32:01.326Z,7.19
2023-04-27T11:33:32.922Z,8.56
2023-04-27T11:35:04.368Z,6.83
2023-04-27T11:36:35.764Z,7.92
2023-04-27T11:38:07.140Z,7.51
2023-04-27T11:39:38.643Z,8.83
2023-04-27T11:41:09.982Z,9.18
2023-04-27T11:42:41.371Z,9.02
2023-04-27T11:44:12.714Z,8.33
2023-04-27T11:45:44.298Z,7.67
2023-04-27T11:47:18.239Z,7.91
2023-04-27T11:48:50.302Z,10.03
2023-04-27T11:50:21.710Z,6.65
2023-04-27T11:51:53.087Z,8.32
2023-04-27T11:53:24.497Z,6.45
2023-04-27T11:55:01.071Z,6.91
2023-04-27T11:56:32.615Z,8.29
2023-04-27T11:58:03.969Z,7.47
2023-04-27T11:59:35.505Z,6.67
2023-04-27T12:01:07.113Z,6.44
2023-04-27T12:02:38.933Z,8.69
2023-04-27T12:04:10.827Z,8.50
2023-04-27T12:05:42.414Z,7.45
2023-04-27T12:07:14.154Z,7.76
2023-04-27T12:08:45.584Z,8.37
2023-04-27T12:10:17.243Z,8.86
2023-04-27T12:11:48.654Z,7.27
2023-04-27T12:13:20.165Z,8.25
2023-04-27T12:14:51.783Z,7.38
2023-04-27T12:16:23.544Z,7.76
2023-04-27T12:17:55.047Z,7.95
2023-04-27T12:19:26.531Z,8.47
2023-04-27T12:21:01.525Z,9.71
2023-04-27T12:22:34.426Z,7.41
2023-04-27T12:24:06.288Z,8.29
2023-04-27T12:25:37.853Z,7.52
2023-04-27T12:27:09.394Z,7.56
2023-04-27T12:28:40.874Z,8.38
2023-04-27T12:30:12.482Z,6.79
2023-04-27T12:31:44.106Z,7.20
2023-04-27T12:33:15.680Z,8.08
2023-04-27T12:34:47.253Z,7.07
2023-04-27T12:36:18.683Z,7.86
2023-04-27T12:37:50.581Z,6.90
2023-04-27T12:39:22.092Z,8.00
2023-04-27T12:40:53.807Z,8.73
2023-04-27T12:42:25.497Z,9.28
2023-04-27T12:43:56.969Z,8.06
2023-04-27T12:45:29.928Z,6.91
2023-04-27T12:47:02.360Z,7.57
2023-04-27T12:48:34.138Z,9.41
2023-04-27T12:50:11.010Z,8.54
2023-04-27T12:51:42.519Z,7.67
2023-04-27T12:53:20.411Z,7.10
2023-04-27T12:54:52.033Z,6.70
2023-04-27T12:56:23.481Z,6.40
2023-04-27T12:57:55.026Z,7.06
2023-04-27T12:59:26.535Z,7.12
2023-04-27T13:00:57.984Z,7.74
2023-04-27T13:02:29.548Z,7.81
2023-04-27T13:04:01.308Z,7.73
2023-04-27T13:05:32.846Z,7.31
2023-04-27T13:07:04.512Z,6.12
2023-04-27T13:08:35.903Z,7.07
2023-04-27T13:10:07.521Z,9.07
2023-04-27T13:11:39.018Z,8.87
2023-04-27T13:13:10.401Z,8.34
2023-04-27T13:14:41.927Z,9.77
2023-04-27T13:16:13.357Z,8.02
2023-04-27T13:17:44.958Z,6.94
2023-04-27T13:19:16.529Z,6.21
2023-04-27T13:20:48.035Z,6.38
2023-04-27T13:22:19.586Z,8.49
2023-04-27T13:23:51.321Z,5.77
2023-04-27T13:25:22.866Z,8.16
2023-04-27T13:26:54.308Z,6.72
2023-04-27T13:28:25.990Z,7.28
2023-04-27T13:29:57.587Z,7.51
2023-04-27T13:31:29.517Z,7.37
2023-04-27T13:33:14.313Z,6.56
2023-04-27T13:34:50.583Z,7.59
2023-04-27T13:36:22.446Z,8.64
2023-04-27T13:37:53.884Z,9.13
2023-04-27T13:39:25.381Z,8.63
2023-04-27T13:40:56.850Z,7.42
2023-04-27T13:42:28.293Z,8.92
2023-04-27T13:44:12.417Z,8.23
2023-04-27T13:45:44.644Z,7.84
2023-04-27T13:47:16.893Z,7.74
2023-04-27T13:48:48.712Z,6.86
2023-04-27T13:50:20.432Z,7.89
2023-04-27T13:51:52.010Z,8.59
2023-04-27T13:53:23.461Z,8.21
2023-04-27T13:54:54.894Z,8.41
2023-04-27T13:56:26.371Z,8.07
2023-04-27T13:57:57.813Z,8.02
2023-04-27T13:59:29.241Z,8.27
2023-04-27T14:01:00.798Z,7.74
2023-04-27T14:02:32.407Z,8.11
2023-04-27T14:04:04.146Z,8.02
2023-04-27T14:05:36.234Z,8.57
2023-04-27T14:07:07.716Z,8.29
2023-04-27T14:08:39.155Z,8.17
2023-04-27T14:10:10.590Z,6.69
2023-04-27T14:11:55.055Z,7.23
2023-04-27T14:13:28.137Z,7.37
2023-04-27T14:14:59.577Z,9.33
2023-04-27T14:16:31.562Z,9.39
2023-04-27T14:18:03.348Z,8.36
2023-04-27T14:19:34.822Z,7.61
2023-04-27T14:21:07.346Z,10.34
2023-04-27T14:22:38.731Z,8.70
2023-04-27T14:24:10.321Z,9.71
2023-04-27T14:25:42.199Z,9.20
2023-04-27T14:27:13.723Z,7.06
2023-04-27T14:28:45.170Z,6.76
2023-04-27T14:30:16.968Z,8.03
2023-04-27T14:31:48.481Z,8.66
2023-04-27T14:33:20.021Z,8.54
2023-04-27T14:34:51.651Z,7.52
2023-04-27T14:36:23.327Z,8.93
2023-04-27T14:37:54.971Z,9.41
2023-04-27T14:39:26.486Z,10.07
2023-04-27T14:40:58.312Z,8.19
2023-04-27T14:42:30.159Z,9.57
2023-04-27T14:44:01.968Z,11.37
2023-04-27T14:45:40.156Z,7.98
2023-04-27T14:47:30.370Z,8.92
2023-04-27T14:49:02.299Z,8.28
2023-04-27T14:50:34.284Z,9.02
2023-04-27T14:52:06.601Z,9.05
2023-04-27T14:53:38.470Z,9.42
2023-04-27T14:55:10.043Z,8.73
2023-04-27T14:56:47.318Z,9.09
2023-04-27T14:58:19.027Z,8.17
2023-04-27T14:59:50.875Z,8.17
2023-04-27T15:01:22.743Z,8.86
2023-04-27T15:02:54.582Z,9.38
2023-04-27T15:04:26.229Z,9.26
2023-04-27T15:06:13.283Z,8.16
2023-04-27T15:07:49.993Z,9.67
2023-04-27T15:09:21.679Z,8.68
2023-04-27T15:10:58.309Z,8.49
2023-04-27T15:12:29.926Z,9.53
2023-04-27T15:14:01.737Z,9.46
2023-04-27T15:15:33.683Z,8.17
2023-04-27T15:17:05.584Z,8.70
2023-04-27T15:18:37.133Z,9.32
2023-04-27T15:20:08.706Z,7.87
2023-04-27T15:21:58.510Z,8.58
2023-04-27T15:23:30.417Z,10.67
2023-04-27T15:25:06.902Z,8.71
2023-04-27T15:27:12.826Z,7.97
2023-04-27T15:28:44.281Z,9.00
2023-04-27T15:30:17.280Z,8.79
2023-04-27T15:31:48.845Z,9.40
2023-04-27T15:33:25.600Z,10.55
2023-04-27T15:35:18.616Z,11.10
2023-04-27T15:36:50.015Z,10.68
2023-04-27T15:38:21.486Z,12.28
2023-04-27T15:42:15.547Z,9.09
2023-04-27T15:43:46.983Z,9.48
2023-04-27T15:45:18.830Z,8.60
2023-04-27T15:46:50.438Z,8.83
2023-04-27T15:48:22.026Z,9.71
2023-04-27T15:50:28.094Z,9.32
2023-04-27T15:52:00.125Z,9.07
2023-04-27T15:53:31.658Z,9.69
2023-04-27T15:55:30.918Z,9.05
2023-04-27T15:57:05.124Z,9.80
2023-04-27T15:58:37.203Z,11.21
2023-04-27T16:00:09.359Z,10.03
2023-04-27T16:01:40.962Z,10.52
2023-04-27T16:03:14.089Z,12.48
2023-04-27T16:04:51.041Z,8.88
2023-04-27T16:06:22.869Z,8.87
2023-04-27T16:08:01.820Z,8.82
2023-04-27T16:09:57.265Z,8.12
2023-04-27T16:11:29.320Z,9.84
2023-04-27T16:13:01.552Z,9.41
2023-04-27T16:14:43.148Z,10.20
2023-04-27T16:16:28.506Z,9.42
2023-04-27T16:18:16.152Z,8.56
2023-04-27T16:19:54.068Z,8.53
2023-04-27T16:21:30.682Z,10.41
2023-04-27T16:23:02.835Z,9.30
2023-04-27T16:24:34.548Z,9.55
2023-04-27T16:26:12.147Z,9.47
2023-04-27T16:27:43.865Z,8.37
2023-04-27T16:29:15.730Z,9.07
2023-04-27T16:30:47.436Z,9.89
2023-04-27T16:32:21.219Z,10.12
2023-04-27T16:33:53.538Z,9.37
2023-04-27T16:35:25.715Z,11.70
2023-04-27T16:37:02.563Z,9.34
2023-04-27T16:38:34.294Z,8.82
2023-04-27T16:40:05.765Z,8.88
2023-04-27T16:41:37.254Z,8.75
2023-04-27T16:43:09.121Z,9.92
2023-04-27T16:44:40.835Z,10.54
2023-04-27T16:46:12.780Z,11.56
2023-04-27T16:47:44.561Z,9.06
2023-04-27T16:49:16.490Z,11.22
2023-04-27T16:50:48.468Z,11.08
2023-04-27T16:52:19.956Z,8.40
2023-04-27T16:53:51.617Z,10.29
2023-04-27T16:55:23.121Z,8.65
2023-04-27T16:56:55.401Z,10.38
2023-04-27T16:58:27.189Z,10.07
2023-04-27T16:59:58.805Z,9.17
2023-04-27T17:01:49.455Z,10.54
2023-04-27T17:03:55.098Z,9.42
2023-04-27T17:05:57.176Z,10.90
2023-04-27T17:07:45.985Z,9.55
2023-04-27T17:09:17.915Z,10.70
2023-04-27T17:11:04.479Z,9.15
2023-04-27T17:12:36.008Z,10.93
2023-04-27T17:14:12.812Z,10.43
2023-04-27T17:15:49.884Z,9.46
2023-04-27T17:17:21.576Z,11.76
2023-04-27T17:18:53.073Z,9.19
2023-04-27T17:20:34.583Z,9.24
2023-04-27T17:22:05.920Z,10.12
2023-04-27T17:23:44.137Z,10.13
2023-04-27T17:25:20.511Z,9.26
2023-04-27T17:26:57.045Z,9.76
2023-04-27T17:28:28.484Z,9.45
2023-04-27T17:29:59.955Z,8.96
2023-04-27T17:31:31.365Z,10.25
2023-04-27T17:33:03.008Z,8.59
2023-04-27T17:34:34.434Z,8.81
2023-04-27T17:36:10.853Z,10.23
2023-04-27T17:37:47.713Z,10.52
2023-04-27T17:39:19.119Z,10.38
2023-04-27T17:40:50.630Z,10.05
2023-04-27T17:42:27.056Z,8.06
2023-04-27T17:43:58.501Z,9.75
2023-04-27T17:45:46.952Z,12.64
2023-04-27T17:47:18.542Z,8.09
2023-04-27T17:48:49.904Z,9.39
2023-04-27T17:50:21.474Z,8.62
2023-04-27T17:51:52.907Z,9.45
2023-04-27T17:53:24.303Z,8.97
2023-04-27T17:54:55.693Z,8.69
2023-04-27T17:56:27.250Z,9.44
2023-04-27T17:57:58.619Z,8.33
2023-04-27T17:59:30.046Z,9.11
2023-04-27T18:01:11.852Z,9.61
2023-04-27T18:02:53.423Z,8.12
2023-04-27T18:04:45.814Z,8.76
2023-04-27T18:06:33.755Z,9.33
2023-04-27T18:08:14.183Z,8.37
2023-04-27T18:10:09.064Z,9.07
2023-04-27T18:11:45.759Z,9.21
2023-04-27T18:13:47.576Z,9.50
2023-04-27T18:15:50.227Z,10.31
2023-04-27T18:17:42.000Z,16.24
2023-04-27T18:19:28.232Z,10.69
2023-04-27T18:21:06.457Z,10.35
2023-04-27T18:22:37.816Z,8.53
2023-04-27T18:24:09.429Z,9.28
2023-04-27T18:25:41.009Z,9.06
2023-04-27T18:27:29.050Z,7.76
2023-04-27T18:29:00.460Z,10.33
2023-04-27T18:30:33.149Z,9.52
2023-04-27T18:32:04.512Z,8.18
2023-04-27T18:33:35.987Z,9.43
2023-04-27T18:35:19.434Z,12.49
2023-04-27T18:36:51.930Z,11.01
2023-04-27T18:38:33.641Z,9.69
2023-04-27T18:40:05.103Z,9.42
2023-04-27T18:41:36.534Z,8.56
2023-04-27T18:43:18.108Z,9.13
2023-04-27T18:44:49.420Z,8.40
2023-04-27T18:46:20.938Z,10.06
2023-04-27T18:47:52.377Z,10.69
2023-04-27T18:49:39.828Z,9.46
2023-04-27T18:51:11.213Z,8.56
2023-04-27T18:53:19.528Z,10.29
2023-04-27T18:54:52.177Z,10.57
2023-04-27T18:56:39.693Z,9.98
2023-04-27T18:58:17.264Z,10.97
2023-04-27T18:59:49.186Z,8.71
2023-04-27T19:01:44.008Z,8.80
2023-04-27T19:03:15.963Z,8.20
2023-04-27T19:04:57.051Z,8.65
2023-04-27T19:06:33.258Z,10.78
2023-04-27T19:08:04.941Z,8.64
2023-04-27T19:09:41.333Z,8.41
2023-04-27T19:11:12.912Z,11.00
2023-04-27T19:12:44.229Z,9.30
2023-04-27T19:14:30.645Z,8.96
2023-04-27T19:16:02.057Z,8.82
2023-04-27T19:17:43.544Z,10.95
2023-04-27T19:19:30.383Z,9.85
2023-04-27T19:21:10.044Z,9.98
2023-04-27T19:23:09.944Z,11.09
2023-04-27T19:24:41.458Z,10.93
2023-04-27T19:26:14.183Z,11.44
2023-04-27T19:27:46.151Z,11.78
2023-04-27T19:29:39.126Z,9.20
2023-04-27T19:31:12.190Z,11.31
2023-04-27T19:32:44.936Z,9.73
2023-04-27T19:34:22.616Z,9.08
2023-04-27T19:35:59.193Z,9.02
2023-04-27T19:38:02.686Z,8.96
2023-04-27T19:39:34.647Z,9.35
2023-04-27T19:41:06.774Z,9.98
2023-04-27T19:42:38.137Z,9.07
2023-04-27T19:44:10.125Z,8.93
2023-04-27T19:45:41.584Z,10.38
2023-04-27T19:47:12.930Z,9.18
2023-04-27T19:49:07.878Z,9.95
2023-04-27T19:50:39.709Z,12.15
2023-04-27T19:52:11.192Z,10.27
2023-04-27T19:53:42.482Z,9.83
2023-04-27T19:55:13.862Z,11.41
2023-04-27T19:56:45.189Z,9.36
2023-04-27T19:58:16.729Z,8.74
2023-04-27T19:59:48.107Z,11.74
2023-04-27T20:01:49.132Z,9.68
2023-04-27T20:03:21.957Z,11.90
2023-04-27T20:04:54.030Z,12.90
2023-04-27T20:06:25.546Z,10.97
2023-04-27T20:07:56.930Z,9.02
2023-04-27T20:09:28.390Z,8.69
2023-04-27T20:10:59.765Z,10.86
2023-04-27T20:12:51.358Z,10.90
2023-04-27T20:14:27.506Z,10.22
2023-04-27T20:15:58.973Z,10.98
2023-04-27T20:17:30.647Z,9.48
2023-04-27T20:19:03.164Z,8.82
2023-04-27T20:20:34.534Z,8.77
2023-04-27T20:22:05.841Z,9.29
2023-04-27T20:23:37.303Z,8.42
2023-04-27T20:25:08.591Z,10.16
2023-04-27T20:26:39.980Z,8.73
2023-04-27T20:28:11.525Z,8.88
2023-04-27T20:29:42.838Z,9.42
2023-04-27T20:31:14.907Z,9.84
2023-04-27T20:32:46.490Z,9.85
2023-04-27T20:34:18.214Z,9.63